OH53 weather

Ohio Bldg Authority Heliport
Columbus, Ohio, United States

Public forecast

Using degrees Fahrenheit for public forecast. Weather courtesy of forecast.io.

Closest aviation weather report (METAR) to Ohio Bldg Authority Heliport

Closest report is John Glenn Columbus International Airport, 5.4 nm (10.0 km) ENE. Retrieved 2020/06/01 21:51 UTC (34 minutes ago):

KCMH 012151Z 19008KT 10SM BKN240 22/02 A3019 RMK AO2 SLP222 T02220017

Closest aviation forecast (TAF) to Ohio Bldg Authority Heliport

Closest forecast is John Glenn Columbus International Airport, 5.4 nm (10.0 km) ENE. Retrieved 2020/06/01 18:42 UTC (4 hours ago):

TAF KCMH 011739Z 0118/0218 VRB04KT P6SM SCT250 FM012200 20007KT P6SM BKN090 FM020100 VRB03KT P6SM BKN090 FM020900 21008KT P6SM SCT090 FM021500 25013G23KT P6SM FEW250